Time;durP1;ratioP1;P1;durP2;ratioP2;P2;SDS_P1;SDS_P2;PMS_P1;PMS_P2;Temp;Humidity;BMP_temperature;BMP_pressure;BME280_temperature;BME280_humidity;BME280_pressure;Samples;Min_cycle;Max_cycle;Signal;HPM_P1;HPM_P2
2022/10/07 00:01:21;;;;;;;21.80;14.20;;;;;;;9.57;72.29;101549.41;106064;1274;97860;-81
2022/10/07 00:03:50;;;;;;;20.40;14.00;;;;;;;9.58;72.40;101555.13;106046;1271;138523;-82
2022/10/07 00:06:21;;;;;;;24.10;14.80;;;;;;;9.58;72.52;101552.52;106074;1273;112520;-83
2022/10/07 00:08:52;;;;;;;23.50;14.40;;;;;;;9.59;72.40;101552.88;106087;1273;138896;-83
2022/10/07 00:11:24;;;;;;;25.00;14.40;;;;;;;9.57;72.37;101553.06;106180;1272;108245;-81
2022/10/07 00:13:56;;;;;;;28.20;14.60;;;;;;;9.56;72.55;101553.42;106156;1272;97941;-82
2022/10/07 00:16:28;;;;;;;23.20;15.20;;;;;;;9.56;72.56;101551.15;107588;1272;138690;-82
2022/10/07 00:18:59;;;;;;;26.30;13.80;;;;;;;9.57;72.64;101553.23;107599;1272;111492;-82
2022/10/07 00:21:31;;;;;;;21.60;13.50;;;;;;;9.56;72.68;101554.27;106021;1273;138702;-82
2022/10/07 00:24:00;;;;;;;24.40;14.40;;;;;;;9.56;72.69;101548.04;106115;1273;107763;-81
2022/10/07 00:26:31;;;;;;;25.30;14.20;;;;;;;9.56;72.70;101546.13;106128;1272;97832;-83
2022/10/07 00:29:01;;;;;;;20.60;13.80;;;;;;;9.56;72.75;101543.69;105954;1273;139226;-82
2022/10/07 00:31:32;;;;;;;24.40;14.10;;;;;;;9.56;72.83;101545.08;105953;1274;111334;-82
2022/10/07 00:34:03;;;;;;;22.30;13.70;;;;;;;9.56;72.76;101547.69;105973;1274;138916;-82
2022/10/07 00:36:33;;;;;;;23.00;13.50;;;;;;;9.57;72.82;101545.08;106157;1273;108933;-82
2022/10/07 00:39:05;;;;;;;23.90;14.00;;;;;;;9.56;72.83;101543.86;105978;1273;139175;-82
2022/10/07 00:41:36;;;;;;;22.50;13.50;;;;;;;9.56;72.83;101542.83;106282;1273;97736;-83
2022/10/07 00:44:40;;;;;;;18.20;12.80;;;;;;;9.56;72.87;101542.13;107804;1272;112555;-82
2022/10/07 00:47:22;;;;;;;24.60;13.50;;;;;;;9.56;72.87;101546.83;107793;1272;107605;-83
2022/10/07 00:49:56;;;;;;;23.70;13.20;;;;;;;9.55;72.92;101545.44;107690;1273;108222;-83
2022/10/07 00:52:29;;;;;;;23.70;14.10;;;;;;;9.54;72.80;101547.53;107585;1273;138825;-83
2022/10/07 00:55:00;;;;;;;24.00;14.70;;;;;;;9.51;72.81;101548.92;107675;1274;95949;-84
2022/10/07 00:57:31;;;;;;;21.40;13.70;;;;;;;9.49;72.79;101552.23;107533;1272;139433;-83
2022/10/07 01:00:00;;;;;;;23.10;13.60;;;;;;;9.46;72.77;101548.78;107739;1271;109090;-84
2022/10/07 01:02:29;;;;;;;20.70;13.10;;;;;;;9.43;72.73;101545.86;107740;1271;107955;-83
2022/10/07 01:05:02;;;;;;;22.90;13.10;;;;;;;9.40;72.82;101542.94;106070;1273;138666;-83
2022/10/07 01:07:31;;;;;;;22.40;13.10;;;;;;;9.38;72.88;101542.77;107656;1274;96385;-85
2022/10/07 01:10:00;;;;;;;26.70;13.20;;;;;;;9.37;73.07;101539.84;107002;1273;140865;-83
2022/10/07 01:12:39;;;;;;;27.30;13.00;;;;;;;9.35;72.95;101539.67;106480;1274;108818;-83
2022/10/07 01:15:16;;;;;;;21.60;13.40;;;;;;;9.32;72.98;101533.08;106019;1273;139253;-81
2022/10/07 01:17:52;;;;;;;25.40;12.30;;;;;;;9.31;73.08;101533.77;106075;1273;97830;-82
2022/10/07 01:20:33;;;;;;;25.50;12.20;;;;;;;9.30;73.15;101533.78;106152;1273;97913;-83
2022/10/07 01:23:18;;;;;;;20.10;11.50;;;;;;;9.31;73.30;101533.95;106098;1273;138738;-83
2022/10/07 01:26:03;;;;;;;22.50;12.50;;;;;;;9.31;73.22;101534.30;106188;1273;109261;-82
2022/10/07 01:28:38;;;;;;;19.20;12.00;;;;;;;9.31;73.22;101535.52;106094;1273;139053;-82
2022/10/07 01:31:12;;;;;;;22.90;12.30;;;;;;;9.30;73.33;101531.88;106105;1273;97887;-83
2022/10/07 01:33:43;;;;;;;20.80;12.20;;;;;;;9.30;73.25;101532.23;106051;1273;140397;-84
2022/10/07 01:36:16;;;;;;;23.10;13.30;;;;;;;9.29;73.22;101537.09;106194;1273;112552;-83
2022/10/07 01:38:49;;;;;;;20.90;12.80;;;;;;;9.29;73.26;101540.39;106038;1273;139736;-81
2022/10/07 01:41:21;;;;;;;21.00;12.10;;;;;;;9.28;73.29;101539.01;106202;1273;109071;-83
2022/10/07 01:43:54;;;;;;;20.30;12.00;;;;;;;9.28;73.24;101539.19;106144;1274;97621;-83
2022/10/07 01:46:24;;;;;;;17.80;11.90;;;;;;;9.27;73.37;101533.98;106121;1273;138533;-82
2022/10/07 01:48:53;;;;;;;18.80;11.40;;;;;;;9.27;73.21;101534.67;106080;1274;112699;-82
2022/10/07 01:51:27;;;;;;;24.70;12.60;;;;;;;9.24;73.19;101533.66;106113;1273;140968;-81
2022/10/07 01:54:03;;;;;;;21.30;12.90;;;;;;;9.20;73.23;101535.43;106442;1274;108832;-82
2022/10/07 01:56:54;;;;;;;17.90;11.00;;;;;;;9.17;73.29;101535.79;105958;1274;97831;-82
2022/10/07 01:59:39;;;;;;;18.10;11.10;;;;;;;9.14;73.18;101538.91;106027;1273;97690;-83
2022/10/07 02:02:19;;;;;;;19.20;11.60;;;;;;;9.12;73.35;101538.41;106024;1274;112549;-83
2022/10/07 02:04:58;;;;;;;17.30;11.10;;;;;;;9.12;73.33;101537.36;105902;1274;139229;-83
2022/10/07 02:07:38;;;;;;;20.40;11.00;;;;;;;9.12;73.36;101533.71;106089;1273;109154;-84
2022/10/07 02:10:16;;;;;;;16.20;10.80;;;;;;;9.11;73.31;101537.89;106017;1272;140475;-83
2022/10/07 02:12:52;;;;;;;19.00;10.90;;;;;;;9.09;73.32;101535.48;106097;1272;97739;-82
2022/10/07 02:15:26;;;;;;;17.10;11.10;;;;;;;9.08;73.30;101539.65;106032;1272;139392;-82
2022/10/07 02:18:01;;;;;;;18.20;10.00;;;;;;;9.07;73.33;101538.09;106042;1273;109230;-84
2022/10/07 02:20:34;;;;;;;17.90;10.40;;;;;;;9.06;73.34;101536.35;106162;1272;108938;-83
2022/10/07 02:23:07;;;;;;;16.20;9.90;;;;;;;9.06;73.25;101534.63;106128;1273;97892;-83
2022/10/07 02:25:40;;;;;;;21.10;10.30;;;;;;;9.04;73.29;101535.86;106168;1272;97827;-84
2022/10/07 02:28:11;;;;;;;17.00;10.20;;;;;;;9.03;73.32;101535.52;106001;1272;138575;-83
2022/10/07 02:30:44;;;;;;;16.10;9.80;;;;;;;9.03;73.30;101537.43;106151;1272;109177;-83
2022/10/07 02:33:14;;;;;;;17.90;10.30;;;;;;;9.02;73.34;101532.75;105905;1273;138772;-82
2022/10/07 02:35:48;;;;;;;18.60;10.40;;;;;;;9.03;73.28;101531.18;106105;1273;97923;-81
2022/10/07 02:38:18;;;;;;;15.10;10.20;;;;;;;9.02;73.22;101529.98;106034;1273;97842;-81
2022/10/07 02:40:58;;;;;;;21.90;10.40;;;;;;;9.01;73.35;101530.67;105983;1273;139750;-81
2022/10/07 02:43:35;;;;;;;20.50;10.40;;;;;;;9.02;73.30;101533.27;107762;1273;108917;-84
2022/10/07 02:46:09;;;;;;;15.20;9.80;;;;;;;9.02;73.41;101533.62;106245;1273;140472;-82
2022/10/07 02:48:42;;;;;;;15.80;10.10;;;;;;;9.02;73.25;101535.17;106098;1272;97977;-83
2022/10/07 02:51:17;;;;;;;17.20;9.80;;;;;;;9.01;73.28;101532.23;105964;1273;138894;-82
2022/10/07 02:53:52;;;;;;;15.10;9.50;;;;;;;9.01;73.35;101533.63;106078;1273;111487;-82
2022/10/07 02:56:25;;;;;;;15.60;9.70;;;;;;;9.01;73.26;101532.76;106034;1273;109023;-82
2022/10/07 02:58:54;;;;;;;15.00;9.40;;;;;;;9.02;73.26;101528.08;105994;1272;140372;-83
2022/10/07 03:01:25;;;;;;;12.60;8.70;;;;;;;9.03;73.25;101528.23;106437;1272;97934;-83
2022/10/07 03:03:55;;;;;;;14.30;8.90;;;;;;;9.02;73.19;101526.68;106028;1273;140449;-83
2022/10/07 03:06:28;;;;;;;16.10;9.20;;;;;;;9.00;73.10;101526.86;106115;1273;111371;-81
2022/10/07 03:08:59;;;;;;;17.30;9.80;;;;;;;8.99;73.21;101528.77;106031;1273;139675;-81
2022/10/07 03:11:28;;;;;;;22.10;9.60;;;;;;;8.99;73.23;101528.79;106057;1274;109437;-81
2022/10/07 03:13:57;;;;;;;16.80;9.60;;;;;;;8.98;73.34;101528.09;106097;1274;97808;-82
2022/10/07 03:16:26;;;;;;;15.90;9.00;;;;;;;8.96;73.23;101528.95;105957;1273;138280;-81
2022/10/07 03:18:55;;;;;;;13.40;8.20;;;;;;;8.95;73.18;101527.90;106110;1273;113076;-81
2022/10/07 03:21:33;;;;;;;14.00;8.50;;;;;;;8.95;73.21;101525.48;107213;1272;138828;-81
2022/10/07 03:24:03;;;;;;;19.10;8.70;;;;;;;8.96;73.22;101524.09;106936;1272;108295;-81
2022/10/07 03:26:36;;;;;;;15.00;8.60;;;;;;;8.98;73.28;101524.10;106199;1273;97944;-81
2022/10/07 03:29:05;;;;;;;14.90;8.80;;;;;;;9.00;73.32;101524.61;106213;1272;97842;-81
2022/10/07 03:31:34;;;;;;;15.20;8.70;;;;;;;9.00;73.21;101525.48;106023;1274;112478;-81
2022/10/07 03:34:03;;;;;;;15.00;8.30;;;;;;;9.00;73.14;101528.42;105985;1273;140313;-80
2022/10/07 03:36:32;;;;;;;15.90;8.80;;;;;;;9.00;73.02;101526.87;106085;1273;109126;-82
2022/10/07 03:39:02;;;;;;;12.50;8.60;;;;;;;9.00;73.02;101529.47;106032;1272;139751;-80
2022/10/07 03:41:32;;;;;;;17.70;9.30;;;;;;;9.00;72.99;101520.27;106084;1274;97860;-80
2022/10/07 03:44:02;;;;;;;16.40;9.30;;;;;;;9.01;73.00;101522.52;106226;1272;111453;-81
2022/10/07 03:46:31;;;;;;;15.70;9.20;;;;;;;8.99;72.96;101519.58;106105;1273;138372;-81
2022/10/07 03:49:00;;;;;;;17.40;9.50;;;;;;;8.98;72.92;101517.85;106098;1273;108852;-80
2022/10/07 03:51:29;;;;;;;16.30;9.60;;;;;;;8.96;72.99;101516.11;106003;1273;139487;-80
2022/10/07 03:53:58;;;;;;;16.00;9.40;;;;;;;8.95;72.99;101515.77;106144;1272;97827;-81
2022/10/07 03:56:30;;;;;;;18.90;9.30;;;;;;;8.93;72.90;101513.88;106036;1274;112472;-81
2022/10/07 03:59:01;;;;;;;18.60;9.10;;;;;;;8.90;72.91;101508.69;105924;1274;138256;-81
2022/10/07 04:01:31;;;;;;;17.40;10.00;;;;;;;8.88;72.94;101509.05;105994;1274;108950;-80
2022/10/07 04:04:01;;;;;;;14.70;9.40;;;;;;;8.87;73.02;101509.75;106324;1272;139414;-81
2022/10/07 04:06:33;;;;;;;12.10;8.90;;;;;;;8.85;72.97;101511.67;106150;1272;97852;-82
2022/10/07 04:09:04;;;;;;;17.50;9.20;;;;;;;8.82;72.99;101506.14;106014;1273;138445;-81
2022/10/07 04:11:33;;;;;;;18.20;9.20;;;;;;;8.79;73.04;101508.04;106063;1274;109050;-81
2022/10/07 04:14:02;;;;;;;16.40;9.60;;;;;;;8.79;73.10;101505.79;106033;1274;108401;-80
2022/10/07 04:16:32;;;;;;;16.90;9.60;;;;;;;8.76;72.90;101504.93;105932;1274;140032;-80
2022/10/07 04:19:06;;;;;;;15.10;9.10;;;;;;;8.74;73.00;101502.70;106008;1274;98014;-80
2022/10/07 04:21:35;;;;;;;18.00;9.40;;;;;;;8.72;73.06;101502.54;105970;1273;139397;-80
2022/10/07 04:24:05;;;;;;;19.90;9.60;;;;;;;8.70;73.12;101505.67;106039;1274;109560;-80
2022/10/07 04:26:34;;;;;;;18.30;8.90;;;;;;;8.67;73.12;101507.24;105995;1274;109093;-80
2022/10/07 04:29:03;;;;;;;15.00;8.80;;;;;;;8.64;73.10;101501.89;105878;1274;138374;-80
2022/10/07 04:31:32;;;;;;;14.40;9.00;;;;;;;8.62;73.24;101500.16;106035;1273;98084;-79
2022/10/07 04:34:05;;;;;;;17.30;9.40;;;;;;;8.61;73.23;101500.32;105996;1273;138292;-81
2022/10/07 04:36:37;;;;;;;16.30;8.90;;;;;;;8.60;73.32;101498.93;106161;1273;108972;-81
2022/10/07 04:39:09;;;;;;;17.00;9.50;;;;;;;8.59;73.35;101499.29;105907;1274;138504;-80
2022/10/07 04:41:44;;;;;;;17.20;9.20;;;;;;;8.57;73.34;101500.86;105936;1273;97839;-81
2022/10/07 04:44:17;;;;;;;14.60;9.10;;;;;;;8.56;73.43;101497.23;106253;1272;98053;-80
2022/10/07 04:47:00;;;;;;;16.00;9.30;;;;;;;8.54;73.43;101497.23;105920;1273;139106;-81
2022/10/07 04:49:30;;;;;;;14.50;9.00;;;;;;;8.52;73.52;101493.78;106157;1273;108092;-80
2022/10/07 04:51:59;;;;;;;13.50;9.00;;;;;;;8.51;73.48;101496.55;105889;1273;138364;-80
2022/10/07 04:54:33;;;;;;;13.50;9.00;;;;;;;8.50;73.48;101495.02;106785;1271;97834;-81
2022/10/07 04:57:01;;;;;;;16.50;9.70;;;;;;;8.50;73.57;101491.36;107499;1274;138352;-81
2022/10/07 04:59:30;;;;;;;16.40;9.50;;;;;;;8.50;73.50;101488.94;107780;1272;112437;-80
2022/10/07 05:02:00;;;;;;;19.70;9.10;;;;;;;8.50;73.63;101486.86;107116;1274;107003;-80
2022/10/07 05:04:29;;;;;;;17.90;9.50;;;;;;;8.51;73.60;101489.28;107519;1274;138681;-81
2022/10/07 05:06:59;;;;;;;18.60;9.20;;;;;;;8.56;73.69;101487.69;107613;1273;96173;-81
2022/10/07 05:09:28;;;;;;;14.30;8.90;;;;;;;8.63;73.51;101487.49;107509;1273;139342;-80
2022/10/07 05:11:57;;;;;;;14.70;8.70;;;;;;;8.69;73.36;101483.65;107651;1273;112489;-80
2022/10/07 05:14:26;;;;;;;16.40;9.00;;;;;;;8.77;73.19;101484.13;107575;1274;108330;-81
2022/10/07 05:16:56;;;;;;;16.90;8.40;;;;;;;8.86;72.98;101486.52;106141;1273;138540;-81
2022/10/07 05:19:28;;;;;;;16.60;9.20;;;;;;;8.95;72.90;101482.81;105990;1274;97834;-80
2022/10/07 05:21:57;;;;;;;19.10;9.80;;;;;;;9.07;72.79;101485.00;105974;1274;138390;-81
2022/10/07 05:24:26;;;;;;;14.60;9.60;;;;;;;9.23;72.70;101484.21;106057;1274;112981;-81
2022/10/07 05:26:55;;;;;;;18.50;9.70;;;;;;;9.43;72.60;101482.67;105952;1274;137602;-80
2022/10/07 05:29:24;;;;;;;19.70;9.40;;;;;;;9.60;72.19;101482.19;106044;1274;109148;-80
2022/10/07 05:31:54;;;;;;;20.70;9.90;;;;;;;9.74;71.80;101481.19;106115;1273;97830;-81
2022/10/07 05:34:24;;;;;;;19.80;10.00;;;;;;;9.89;71.29;101482.45;106018;1274;138337;-80
2022/10/07 05:36:54;;;;;;;21.60;9.80;;;;;;;10.01;70.97;101482.48;106154;1273;112510;-80
2022/10/07 05:39:23;;;;;;;21.40;10.00;;;;;;;10.15;70.73;101480.44;105911;1273;140393;-80
2022/10/07 05:42:12;;;;;;;21.30;9.60;;;;;;;10.38;70.67;101482.30;106101;1273;110004;-80
2022/10/07 05:44:45;;;;;;;19.50;9.10;;;;;;;10.59;70.33;101481.71;106013;1273;139289;-80
2022/10/07 05:47:14;;;;;;;18.00;9.30;;;;;;;10.79;69.71;101485.80;106182;1273;97707;-80
2022/10/07 05:49:43;;;;;;;20.70;9.00;;;;;;;10.96;69.42;101487.64;106225;1273;112158;-80
2022/10/07 05:52:12;;;;;;;16.10;9.00;;;;;;;11.16;69.16;101487.17;106951;1272;138884;-79
2022/10/07 05:54:41;;;;;;;21.40;9.30;;;;;;;11.35;68.55;101486.72;105999;1273;108969;-80
2022/10/07 05:57:10;;;;;;;18.10;8.90;;;;;;;11.57;68.46;101480.97;106015;1273;139079;-82
2022/10/07 05:59:38;;;;;;;21.90;9.30;;;;;;;11.78;68.03;101484.45;106046;1273;97994;-81
2022/10/07 06:02:12;;;;;;;21.60;9.70;;;;;;;11.99;67.44;101482.00;106196;1273;112546;-82
2022/10/07 06:04:42;;;;;;;23.80;10.00;;;;;;;12.23;67.22;101484.00;105865;1273;140059;-81
2022/10/07 06:07:11;;;;;;;22.60;9.70;;;;;;;12.52;66.94;101487.10;106117;1273;107337;-80
2022/10/07 06:15:19;;;;;;;27.10;9.30;;;;;;;13.61;64.89;101489.52;106025;1271;139874;-80
2022/10/07 06:17:48;;;;;;;20.20;9.50;;;;;;;14.14;64.42;101487.98;106046;1273;108860;-81
2022/10/07 06:20:19;;;;;;;19.20;8.60;;;;;;;14.74;63.75;101491.38;106285;1273;108777;-82
2022/10/07 06:22:49;;;;;;;14.90;8.10;;;;;;;15.34;62.84;101493.02;106037;1272;139015;-82
2022/10/07 06:25:18;;;;;;;19.20;8.00;;;;;;;16.01;61.89;101493.61;106770;1274;98022;-80
2022/10/07 06:27:47;;;;;;;15.50;8.30;;;;;;;16.73;60.79;101493.29;106029;1272;138702;-80
2022/10/07 06:30:24;;;;;;;18.10;8.40;;;;;;;17.41;59.49;101486.73;106010;1275;108359;-80
2022/10/07 06:32:53;;;;;;;16.70;7.70;;;;;;;17.93;58.23;101485.30;106030;1273;138787;-80
2022/10/07 06:35:22;;;;;;;16.40;7.60;;;;;;;18.46;57.34;101481.05;106006;1274;97878;-81
2022/10/07 06:37:51;;;;;;;14.50;8.00;;;;;;;19.12;56.30;101477.40;106017;1274;97848;-80
2022/10/07 06:40:20;;;;;;;13.20;7.80;;;;;;;19.86;55.32;101474.08;106000;1273;138708;-78
2022/10/07 06:42:49;;;;;;;19.30;7.50;;;;;;;20.59;54.48;101477.13;106031;1273;108705;-80
2022/10/07 06:45:31;;;;;;;17.30;7.70;;;;;;;21.45;52.93;101470.22;106015;1272;139160;-80
2022/10/07 06:48:00;;;;;;;18.80;7.70;;;;;;;22.10;51.50;101468.48;107611;1274;96039;-80
2022/10/07 06:50:30;;;;;;;14.90;7.00;;;;;;;22.75;50.57;101471.34;107649;1274;96275;-80
2022/10/07 06:52:59;;;;;;;16.80;6.70;;;;;;;23.37;49.24;101463.92;107513;1273;137812;-80
2022/10/07 06:55:28;;;;;;;19.30;6.90;;;;;;;23.96;48.05;101464.92;106702;1273;109114;-79
2022/10/07 06:57:57;;;;;;;19.70;7.20;;;;;;;24.50;47.19;101468.64;105927;1273;138053;-80
2022/10/07 07:00:27;;;;;;;23.50;7.90;;;;;;;25.05;46.40;101466.94;106232;1273;97839;-81
2022/10/07 07:03:00;;;;;;;20.50;7.70;;;;;;;25.55;45.77;101465.33;105988;1273;138417;-80
2022/10/07 07:05:33;;;;;;;19.20;7.40;;;;;;;26.08;44.78;101460.23;106037;1274;112777;-81
2022/10/07 07:08:02;;;;;;;21.10;7.90;;;;;;;26.52;43.59;101466.58;106180;1273;108598;-79
2022/10/07 07:10:35;;;;;;;19.30;7.60;;;;;;;26.91;42.72;101463.05;105914;1274;138150;-81
2022/10/07 07:13:05;;;;;;;23.90;8.60;;;;;;;27.25;41.57;101464.73;106102;1273;98500;-79
2022/10/07 07:15:34;;;;;;;14.60;8.10;;;;;;;27.58;40.87;101460.52;105956;1273;137851;-79
2022/10/07 07:18:04;;;;;;;18.70;9.00;;;;;;;27.88;39.98;101462.05;106204;1273;112508;-79
2022/10/07 07:20:36;;;;;;;28.00;9.20;;;;;;;27.96;38.95;101456.75;106064;1274;108191;-81
2022/10/07 07:23:09;;;;;;;16.20;9.30;;;;;;;28.01;38.57;101455.42;106015;1273;107817;-81
2022/10/07 07:25:44;;;;;;;15.70;9.60;;;;;;;28.22;38.14;101455.16;107777;1273;96100;-79
2022/10/07 07:28:14;;;;;;;23.30;10.60;;;;;;;28.52;38.25;101457.73;107406;1274;138328;-79
2022/10/07 07:30:44;;;;;;;17.80;9.70;;;;;;;28.87;37.24;101459.05;105994;1274;113065;-81
2022/10/07 07:33:13;;;;;;;21.40;10.90;;;;;;;28.60;36.51;101460.66;105874;1274;138400;-79
2022/10/07 07:35:43;;;;;;;18.00;10.40;;;;;;;28.44;36.66;101456.88;106014;1274;109020;-79
2022/10/07 07:38:12;;;;;;;26.20;10.80;;;;;;;28.44;36.43;101458.61;106226;1273;97894;-81
2022/10/07 07:40:42;;;;;;;17.80;9.30;;;;;;;28.48;35.58;101462.96;105948;1274;138936;-80
2022/10/07 07:43:11;;;;;;;17.90;9.40;;;;;;;28.42;35.41;101461.40;107442;1273;112578;-80
2022/10/07 07:45:39;;;;;;;20.00;8.60;;;;;;;28.42;35.56;101460.66;106099;1272;138069;-79
2022/10/07 07:48:09;;;;;;;15.70;8.90;;;;;;;28.65;35.06;101460.73;106150;1271;108986;-80
2022/10/07 07:50:40;;;;;;;17.70;8.60;;;;;;;28.89;34.82;101459.83;106017;1274;97844;-80
2022/10/07 07:53:10;;;;;;;15.90;7.90;;;;;;;28.98;34.72;101456.73;106150;1273;97836;-80
2022/10/07 07:55:39;;;;;;;19.40;8.30;;;;;;;29.01;33.99;101456.77;106077;1274;112271;-79
2022/10/07 07:58:08;;;;;;;19.50;7.40;;;;;;;28.81;34.10;101457.84;105974;1274;139609;-79
2022/10/07 08:00:41;;;;;;;14.40;7.20;;;;;;;28.75;34.27;101451.79;105950;1274;109006;-80
2022/10/07 08:03:10;;;;;;;13.30;6.80;;;;;;;28.74;33.81;101456.52;105892;1274;138540;-80
2022/10/07 08:05:39;;;;;;;13.20;6.50;;;;;;;28.75;34.08;101453.23;106133;1272;97878;-81
2022/10/07 08:08:11;;;;;;;11.70;5.50;;;;;;;28.89;33.87;101449.27;106203;1273;111772;-83
2022/10/07 08:10:41;;;;;;;13.90;5.80;;;;;;;28.94;33.53;101446.58;106112;1273;139653;-79
2022/10/07 08:13:10;;;;;;;13.80;5.60;;;;;;;28.91;32.91;101448.73;106143;1273;108809;-81
2022/10/07 08:15:39;;;;;;;13.10;5.90;;;;;;;28.64;32.69;101447.52;105957;1274;138641;-80
2022/10/07 08:18:08;;;;;;;14.40;5.80;;;;;;;28.48;33.35;101443.81;106235;1273;97744;-80
2022/10/07 08:20:37;;;;;;;13.90;5.10;;;;;;;28.42;33.14;101444.02;106174;1273;112540;-80
2022/10/07 08:23:06;;;;;;;9.90;4.80;;;;;;;28.27;32.94;101440.99;106197;1273;108966;-82
2022/10/07 08:25:35;;;;;;;12.80;4.70;;;;;;;28.19;33.54;101443.82;106103;1272;107685;-80
2022/10/07 08:28:04;;;;;;;10.50;4.50;;;;;;;28.22;33.16;101436.41;105904;1273;138057;-80
2022/10/07 08:30:34;;;;;;;13.80;4.90;;;;;;;28.31;32.95;101435.62;105995;1274;97754;-81
2022/10/07 08:33:04;;;;;;;8.50;4.70;;;;;;;28.14;32.62;101434.27;105856;1274;139857;-80
2022/10/07 08:35:33;;;;;;;9.30;4.10;;;;;;;27.87;32.82;101430.74;106203;1273;108926;-77
2022/10/07 08:38:01;;;;;;;14.20;4.30;;;;;;;27.74;33.34;101427.34;106131;1273;109257;-82
2022/10/07 08:40:30;;;;;;;10.70;3.80;;;;;;;27.77;33.73;101425.71;106021;1272;138385;-81
2022/10/07 08:42:59;;;;;;;7.30;3.50;;;;;;;27.73;33.22;101428.57;106152;1273;97835;-81
2022/10/07 08:45:32;;;;;;;9.80;4.00;;;;;;;27.57;33.01;101429.54;106062;1273;138244;-79
2022/10/07 08:48:07;;;;;;;9.30;3.90;;;;;;;27.36;32.88;101426.13;106099;1273;108717;-81
2022/10/07 08:50:49;;;;;;;11.50;3.90;;;;;;;27.25;33.12;101418.95;106149;1273;108875;-81
2022/10/07 08:53:22;;;;;;;8.80;3.50;;;;;;;27.12;33.38;101414.40;106132;1273;97837;-80
2022/10/07 08:55:54;;;;;;;11.50;3.40;;;;;;;26.98;33.43;101411.79;106171;1273;97880;-81
2022/10/07 08:58:45;;;;;;;5.80;3.40;;;;;;;26.89;33.37;101410.20;106015;1273;137885;-79
2022/10/07 09:01:25;;;;;;;6.30;2.90;;;;;;;26.62;33.25;101407.21;106183;1273;109005;-82
2022/10/07 09:04:05;;;;;;;7.00;2.80;;;;;;;26.37;33.85;101399.27;106021;1273;138686;-82
2022/10/07 09:06:38;;;;;;;7.60;2.50;;;;;;;26.40;33.91;101403.70;106122;1273;98115;-81
2022/10/07 09:09:13;;;;;;;6.40;2.50;;;;;;;26.23;32.99;101408.20;106034;1273;138208;-82
2022/10/07 09:11:45;;;;;;;6.50;2.70;;;;;;;25.75;32.88;101400.74;106182;1273;111657;-81
2022/10/07 09:14:23;;;;;;;7.50;2.10;;;;;;;25.40;33.43;101397.43;106157;1273;107807;-79
2022/10/07 09:16:56;;;;;;;5.00;1.90;;;;;;;25.49;33.97;101394.54;106044;1273;138014;-82
2022/10/07 09:19:31;;;;;;;6.50;1.90;;;;;;;25.54;34.14;101395.83;106122;1273;97845;-82
2022/10/07 09:22:07;;;;;;;4.10;1.50;;;;;;;25.44;33.55;101395.35;107672;1273;137932;-81
2022/10/07 09:24:36;;;;;;;3.10;1.30;;;;;;;25.07;33.19;101389.02;106551;1273;112050;-79
2022/10/07 09:27:14;;;;;;;7.80;1.40;;;;;;;24.90;33.19;101392.63;106038;1273;140197;-82
2022/10/07 09:29:46;;;;;;;5.10;1.40;;;;;;;24.79;33.37;101398.27;106143;1273;107832;-81
2022/10/07 09:32:18;;;;;;;7.30;1.10;;;;;;;24.55;33.08;101391.47;106136;1272;97815;-81
2022/10/07 09:34:47;;;;;;;7.00;1.30;;;;;;;24.34;33.69;101393.50;106079;1273;138036;-81
2022/10/07 09:37:19;;;;;;;6.50;1.20;;;;;;;24.24;33.54;101388.90;106148;1273;112841;-80
2022/10/07 09:39:51;;;;;;;2.90;1.60;;;;;;;24.23;33.59;101377.39;106051;1273;138580;-80
2022/10/07 09:42:34;;;;;;;4.30;1.30;;;;;;;24.15;33.64;101380.30;106179;1273;109131;-80
2022/10/07 09:45:18;;;;;;;2.50;1.30;;;;;;;23.89;32.88;101387.23;106058;1273;139861;-80
2022/10/07 09:47:52;;;;;;;6.10;1.40;;;;;;;23.64;33.30;101374.92;106152;1273;97842;-80
2022/10/07 09:50:35;;;;;;;6.70;1.80;;;;;;;23.56;33.75;101371.09;106356;1273;112566;-82
2022/10/07 09:53:16;;;;;;;3.50;1.70;;;;;;;23.49;33.87;101365.27;106174;1273;109028;-80
2022/10/07 09:55:45;;;;;;;5.10;1.30;;;;;;;23.42;33.55;101362.56;106118;1273;109272;-81
2022/10/07 09:58:25;;;;;;;4.70;1.40;;;;;;;23.35;33.97;101356.49;106046;1273;137968;-81
2022/10/07 10:00:57;;;;;;;5.10;1.70;;;;;;;23.51;34.51;101354.34;106187;1273;97835;-83
2022/10/07 10:03:31;;;;;;;5.90;1.60;;;;;;;23.58;34.23;101353.56;106087;1273;138218;-84
2022/10/07 10:06:02;;;;;;;5.00;1.80;;;;;;;23.53;34.61;101349.42;106503;1272;107935;-80
2022/10/07 10:08:33;;;;;;;3.80;1.60;;;;;;;23.58;34.52;101350.88;106152;1273;108869;-83
2022/10/07 10:11:05;;;;;;;3.50;1.80;;;;;;;23.54;34.71;101350.10;106078;1273;137870;-81
2022/10/07 10:13:36;;;;;;;8.10;1.60;;;;;;;23.59;34.84;101341.60;106020;1271;97888;-78
2022/10/07 10:16:28;;;;;;;6.20;1.60;;;;;;;23.67;34.62;101334.82;105920;1273;138639;-79
2022/10/07 10:19:01;;;;;;;5.60;1.60;;;;;;;23.49;34.60;101330.86;106177;1273;108322;-81
2022/10/07 10:21:34;;;;;;;5.10;1.80;;;;;;;23.36;34.92;101327.00;106020;1273;139321;-80
2022/10/07 10:24:09;;;;;;;6.80;1.60;;;;;;;23.23;34.79;101319.94;106167;1273;97930;-81
2022/10/07 10:26:54;;;;;;;6.40;1.60;;;;;;;23.17;35.25;101316.60;106204;1273;97820;-82
2022/10/07 10:29:37;;;;;;;4.00;1.60;;;;;;;23.16;35.33;101317.86;106457;1273;138034;-82
2022/10/07 10:32:43;;;;;;;6.00;1.60;;;;;;;22.99;35.14;101312.84;106215;1273;107856;-84
2022/10/07 10:35:19;;;;;;;5.30;1.50;;;;;;;22.64;35.63;101307.15;105756;1278;138104;-80
2022/10/07 10:38:02;;;;;;;3.60;1.50;;;;;;;22.55;35.99;101305.11;105929;1277;97966;-82
2022/10/07 10:40:37;;;;;;;3.10;1.30;;;;;;;22.42;35.88;101303.31;105876;1278;138414;-79
2022/10/07 10:43:20;;;;;;;3.70;1.60;;;;;;;22.30;35.84;101304.05;105966;1278;112555;-82
2022/10/07 10:46:12;;;;;;;7.10;1.40;;;;;;;22.20;36.04;101299.73;105893;1278;109188;-81
2022/10/07 10:49:44;;;;;;;2.30;1.10;;;;;;;22.24;36.48;101297.88;100596;1331;648032;-81
2022/10/07 10:52:38;;;;;;;4.50;1.50;;;;;;;22.25;36.57;101285.39;103114;1304;94413;-79
2022/10/07 10:55:24;;;;;;;3.80;1.30;;;;;;;22.34;36.35;101278.84;102908;1301;94406;-81
2022/10/07 10:58:02;;;;;;;4.50;1.20;;;;;;;22.21;36.05;101279.47;102946;1301;107656;-79
2022/10/07 11:00:41;;;;;;;5.80;1.50;;;;;;;22.09;36.34;101279.02;103709;1307;136625;-80
2022/10/07 11:03:33;;;;;;;6.70;1.30;;;;;;;22.01;36.39;101272.23;103598;1295;131628;-81
2022/10/07 11:06:06;;;;;;;4.50;1.80;;;;;;;21.93;36.08;101273.11;103264;1301;138537;-80
2022/10/07 11:08:37;;;;;;;4.50;1.50;;;;;;;21.68;36.63;101264.23;103738;1292;94408;-79
2022/10/07 11:11:11;;;;;;;6.50;1.60;;;;;;;21.58;37.02;101256.91;103411;1292;136912;-80
2022/10/07 11:13:46;;;;;;;4.10;1.60;;;;;;;21.60;37.19;101251.30;103472;1293;108211;-81
2022/10/07 11:16:19;;;;;;;3.60;1.30;;;;;;;21.68;36.92;101247.19;103482;1291;108652;-79
2022/10/07 11:18:55;;;;;;;4.90;1.30;;;;;;;21.61;36.42;101244.52;103073;1291;137471;-82
2022/10/07 11:21:29;;;;;;;5.00;1.30;;;;;;;21.42;36.62;101237.57;103366;1300;95127;-82
2022/10/07 11:24:03;;;;;;;8.70;1.40;;;;;;;21.30;36.91;101236.49;103786;1290;138534;-79
2022/10/07 11:26:37;;;;;;;3.00;1.30;;;;;;;21.19;37.10;101229.39;103798;1288;107872;-80
2022/10/07 11:29:17;;;;;;;5.40;1.70;;;;;;;21.19;37.74;101226.54;103687;1289;137394;-81
2022/10/07 11:31:54;;;;;;;6.50;1.20;;;;;;;21.27;37.78;101224.35;105343;1289;93332;-81
2022/10/07 11:34:34;;;;;;;3.10;1.40;;;;;;;21.23;37.89;101217.27;104916;1285;95139;-82
2022/10/07 11:37:11;;;;;;;2.30;1.40;;;;;;;21.24;38.08;101209.66;103724;1294;137008;-80
2022/10/07 11:39:40;;;;;;;3.20;1.60;;;;;;;21.31;38.32;101207.96;103774;1294;106313;-81